createdAt,value
2017-10-19T00:00:20.095Z,8.10
2017-10-19T00:02:49.495Z,7.67
2017-10-19T00:05:18.757Z,7.97
2017-10-19T00:07:47.824Z,7.53
2017-10-19T00:10:16.893Z,7.93
2017-10-19T00:12:46.312Z,8.00
2017-10-19T00:15:15.557Z,7.63
2017-10-19T00:17:44.887Z,6.97
2017-10-19T00:20:14.090Z,7.90
2017-10-19T00:22:43.206Z,8.20
2017-10-19T00:25:12.292Z,8.57
2017-10-19T00:27:41.403Z,9.07
2017-10-19T00:30:11.446Z,8.60
2017-10-19T00:32:40.523Z,9.30
2017-10-19T00:35:09.755Z,9.50
2017-10-19T00:37:38.862Z,9.03
2017-10-19T00:40:07.968Z,11.50
2017-10-19T00:42:37.869Z,8.50
2017-10-19T00:45:07.691Z,10.90
2017-10-19T00:47:36.792Z,8.70
2017-10-19T00:50:05.889Z,8.57
2017-10-19T00:52:35.596Z,8.63
2017-10-19T00:55:04.699Z,6.93
2017-10-19T00:57:33.796Z,7.60
2017-10-19T01:00:02.954Z,9.70
2017-10-19T01:02:32.072Z,7.20
2017-10-19T01:05:08.065Z,7.43
2017-10-19T01:07:37.206Z,7.90
2017-10-19T01:10:06.296Z,8.80
2017-10-19T01:12:40.060Z,8.20
2017-10-19T01:15:19.328Z,7.50
2017-10-19T01:17:48.530Z,7.17
2017-10-19T01:20:18.558Z,7.77
2017-10-19T01:22:48.175Z,6.80
2017-10-19T01:25:17.631Z,7.40
2017-10-19T01:27:53.001Z,7.77
2017-10-19T01:30:23.941Z,7.97
2017-10-19T01:32:53.236Z,7.40
2017-10-19T01:35:22.483Z,6.73
2017-10-19T01:37:51.749Z,7.30
2017-10-19T01:40:28.968Z,6.53
2017-10-19T01:42:58.157Z,6.30
2017-10-19T01:45:27.507Z,3.40
2017-10-19T01:48:03.749Z,4.70
2017-10-19T01:50:32.930Z,3.70
2017-10-19T01:53:02.331Z,4.00
2017-10-19T01:55:31.626Z,5.63
2017-10-19T01:58:00.878Z,5.63
2017-10-19T02:00:36.894Z,3.20
2017-10-19T02:03:06.124Z,3.30
2017-10-19T02:05:35.268Z,3.30
2017-10-19T02:08:04.991Z,3.00
2017-10-19T02:10:47.560Z,1.97
2017-10-19T02:13:20.047Z,2.37
2017-10-19T02:15:49.776Z,2.67
2017-10-19T02:18:26.372Z,3.40
2017-10-19T02:20:55.507Z,3.10
2017-10-19T02:23:24.619Z,2.70
2017-10-19T02:25:53.964Z,3.10
2017-10-19T02:28:29.518Z,3.57
2017-10-19T02:30:58.752Z,3.90
2017-10-19T02:33:28.113Z,3.80
2017-10-19T02:36:03.292Z,3.40
2017-10-19T02:38:32.428Z,4.07
2017-10-19T02:41:09.214Z,3.90
2017-10-19T02:43:38.409Z,3.93
2017-10-19T02:46:14.957Z,3.80
2017-10-19T02:48:44.113Z,4.60
2017-10-19T02:51:13.205Z,3.67
2017-10-19T02:53:48.536Z,4.70
2017-10-19T02:56:17.907Z,4.10
2017-10-19T02:58:47.090Z,4.37
2017-10-19T03:01:17.974Z,4.60
2017-10-19T03:03:47.291Z,5.87
2017-10-19T03:06:16.536Z,5.50
2017-10-19T03:08:45.696Z,4.90
2017-10-19T03:11:14.884Z,5.80
2017-10-19T03:13:44.176Z,5.37
2017-10-19T03:16:13.497Z,5.27
2017-10-19T03:18:43.232Z,5.90
2017-10-19T03:21:12.382Z,5.80
2017-10-19T03:23:41.589Z,6.33
2017-10-19T03:26:10.712Z,6.50
2017-10-19T03:28:39.833Z,6.77
2017-10-19T03:31:09.787Z,8.20
2017-10-19T03:33:38.989Z,7.73
2017-10-19T03:36:08.145Z,7.67
2017-10-19T03:38:37.285Z,7.80
2017-10-19T03:41:06.432Z,8.27
2017-10-19T03:43:35.579Z,7.80
2017-10-19T03:46:18.091Z,7.90
2017-10-19T03:48:56.547Z,7.50
2017-10-19T03:51:25.665Z,5.97
2017-10-19T03:53:54.783Z,6.40
2017-10-19T03:56:23.942Z,6.90
2017-10-19T03:58:53.076Z,6.77
2017-10-19T04:01:22.268Z,5.53
2017-10-19T04:03:51.412Z,6.90
2017-10-19T04:06:20.634Z,6.60
2017-10-19T04:08:50.669Z,5.70
2017-10-19T04:11:19.799Z,5.80
2017-10-19T04:13:48.940Z,7.23
2017-10-19T04:16:18.102Z,8.90
2017-10-19T04:18:47.253Z,9.90
2017-10-19T04:21:16.388Z,10.00
2017-10-19T04:23:45.536Z,11.00
2017-10-19T04:26:15.515Z,9.23
2017-10-19T04:28:45.359Z,7.10
2017-10-19T04:31:14.495Z,7.20
2017-10-19T04:33:45.535Z,6.40
2017-10-19T04:36:14.679Z,8.37
2017-10-19T04:38:43.816Z,7.67
2017-10-19T04:41:14.612Z,6.10
2017-10-19T04:43:44.682Z,7.17
2017-10-19T04:46:13.805Z,6.10
2017-10-19T04:48:42.957Z,6.63
2017-10-19T04:51:15.749Z,6.30
2017-10-19T04:53:51.225Z,5.60
2017-10-19T04:56:20.391Z,8.17
2017-10-19T04:59:03.357Z,5.47
2017-10-19T05:01:32.733Z,6.47
2017-10-19T05:04:01.887Z,5.90
2017-10-19T05:06:31.049Z,7.00
2017-10-19T05:09:00.244Z,5.03
2017-10-19T05:11:29.488Z,4.90
2017-10-19T05:13:58.652Z,5.13
2017-10-19T05:16:27.909Z,6.20
2017-10-19T05:18:57.062Z,6.63
2017-10-19T05:21:26.851Z,5.63
2017-10-19T05:23:55.993Z,6.20
2017-10-19T05:26:25.119Z,5.87
2017-10-19T05:28:54.228Z,7.10
2017-10-19T05:31:25.019Z,4.43
2017-10-19T05:33:55.052Z,4.23
2017-10-19T05:36:24.303Z,6.00
2017-10-19T05:39:06.448Z,4.57
2017-10-19T05:41:35.539Z,4.47
2017-10-19T05:44:04.642Z,3.93
2017-10-19T05:46:33.721Z,5.50
2017-10-19T05:49:06.108Z,5.00
2017-10-19T05:51:48.166Z,5.00
2017-10-19T05:54:17.291Z,5.90
2017-10-19T05:56:47.149Z,3.73
2017-10-19T05:59:16.254Z,5.00
2017-10-19T06:01:53.318Z,4.70
2017-10-19T06:04:27.624Z,5.60
2017-10-19T06:06:56.744Z,4.40
2017-10-19T06:09:31.829Z,5.63
2017-10-19T06:12:01.156Z,6.40
2017-10-19T06:14:33.203Z,8.23
2017-10-19T06:17:04.443Z,7.50
2017-10-19T06:19:34.045Z,10.33
2017-10-19T06:22:10.975Z,11.63
2017-10-19T06:24:40.544Z,6.73
2017-10-19T06:27:11.817Z,6.50
2017-10-19T06:29:47.992Z,4.67
2017-10-19T06:32:17.421Z,4.43
2017-10-19T06:34:46.519Z,6.27
2017-10-19T06:37:15.781Z,3.67
2017-10-19T06:39:45.136Z,4.33
2017-10-19T06:42:14.444Z,3.23
2017-10-19T06:44:43.854Z,4.43
2017-10-19T06:47:13.367Z,5.40
2017-10-19T06:49:42.694Z,6.33
2017-10-19T06:52:12.302Z,4.47
2017-10-19T06:54:54.704Z,4.87
2017-10-19T06:57:25.612Z,4.10
2017-10-19T06:59:55.877Z,2.50
2017-10-19T07:02:40.789Z,1.30
2017-10-19T07:05:10.003Z,1.97
2017-10-19T07:07:47.656Z,1.40
2017-10-19T07:10:16.746Z,1.47
2017-10-19T07:12:50.778Z,1.63
2017-10-19T07:15:20.139Z,1.70
2017-10-19T07:17:56.578Z,2.00
2017-10-19T07:20:26.336Z,1.70
2017-10-19T07:22:55.408Z,2.00
2017-10-19T07:25:24.799Z,2.03
2017-10-19T07:28:06.164Z,2.03
2017-10-19T07:30:35.288Z,1.60
2017-10-19T07:33:05.421Z,1.60
2017-10-19T07:35:34.860Z,1.17
2017-10-19T07:38:04.753Z,1.20
2017-10-19T07:40:41.094Z,1.33
2017-10-19T07:43:10.206Z,1.50
2017-10-19T07:45:39.331Z,1.73
2017-10-19T07:48:08.585Z,1.63
2017-10-19T07:50:38.171Z,1.80
2017-10-19T07:53:07.273Z,2.00
2017-10-19T07:55:36.381Z,1.43
2017-10-19T07:58:05.786Z,1.30
2017-10-19T08:00:34.980Z,1.37
2017-10-19T08:03:04.929Z,1.03
2017-10-19T08:05:34.005Z,1.30
2017-10-19T08:08:03.127Z,1.40
2017-10-19T08:10:32.237Z,1.70
2017-10-19T08:13:13.604Z,2.30
2017-10-19T08:15:43.030Z,1.70
2017-10-19T08:18:13.108Z,1.20
2017-10-19T08:20:42.189Z,1.70
2017-10-19T08:23:25.072Z,2.30
2017-10-19T08:25:54.331Z,1.50
2017-10-19T08:28:23.432Z,1.53
2017-10-19T08:30:52.536Z,1.47
2017-10-19T08:33:22.084Z,1.57
2017-10-19T08:35:51.547Z,2.20
2017-10-19T08:38:20.680Z,1.90
2017-10-19T08:40:49.969Z,1.50
2017-10-19T08:43:26.386Z,1.80
2017-10-19T08:45:56.365Z,1.97
2017-10-19T08:48:25.605Z,1.70
2017-10-19T08:50:54.743Z,1.83
2017-10-19T08:53:23.930Z,1.80
2017-10-19T08:56:00.356Z,1.93
2017-10-19T08:58:29.459Z,1.73
2017-10-19T09:00:58.677Z,1.57
2017-10-19T09:03:34.654Z,1.40
2017-10-19T09:06:04.349Z,1.50
2017-10-19T09:08:33.449Z,1.60
2017-10-19T09:11:02.537Z,2.17
2017-10-19T09:13:47.527Z,1.57
2017-10-19T09:16:16.727Z,2.27
2017-10-19T09:18:46.397Z,1.20
2017-10-19T09:21:21.472Z,1.50
2017-10-19T09:23:50.567Z,1.60
2017-10-19T09:26:19.700Z,1.17
2017-10-19T09:28:49.260Z,1.50
2017-10-19T09:31:18.811Z,1.40
2017-10-19T09:33:47.922Z,1.47
2017-10-19T09:36:17.047Z,1.17
2017-10-19T09:38:46.704Z,1.43
2017-10-19T09:41:16.350Z,0.90
2017-10-19T09:43:46.178Z,1.30
2017-10-19T09:46:15.399Z,2.20
2017-10-19T09:48:44.548Z,2.13
2017-10-19T09:51:14.599Z,1.30
2017-10-19T09:53:53.994Z,1.77
2017-10-19T09:56:23.186Z,1.30
2017-10-19T09:58:52.361Z,1.40
2017-10-19T10:01:25.589Z,1.40
2017-10-19T10:03:54.884Z,1.23
2017-10-19T10:06:24.000Z,1.57
2017-10-19T10:08:54.660Z,1.60
2017-10-19T10:11:23.953Z,1.20
2017-10-19T10:13:53.044Z,1.33
2017-10-19T10:16:22.394Z,1.60
2017-10-19T10:18:52.451Z,2.00
2017-10-19T10:21:21.597Z,2.20
2017-10-19T10:24:07.105Z,1.60
2017-10-19T10:26:36.212Z,1.63
2017-10-19T10:29:13.545Z,1.70
2017-10-19T10:31:48.782Z,1.20
2017-10-19T10:34:18.566Z,1.10
2017-10-19T10:36:48.060Z,1.23
2017-10-19T10:39:17.489Z,1.10
2017-10-19T10:41:46.886Z,1.10
2017-10-19T10:44:22.389Z,1.30
2017-10-19T10:46:51.723Z,1.70
2017-10-19T10:49:20.786Z,1.93
2017-10-19T10:51:51.600Z,1.60
2017-10-19T10:54:20.735Z,2.40
2017-10-19T10:56:49.855Z,1.40
2017-10-19T10:59:18.964Z,1.70
2017-10-19T11:01:48.104Z,1.73
2017-10-19T11:04:17.278Z,1.53
2017-10-19T11:06:46.492Z,1.77
2017-10-19T11:09:27.093Z,1.87
2017-10-19T11:11:56.188Z,1.50
2017-10-19T11:14:25.282Z,1.63
2017-10-19T11:16:54.608Z,1.63
2017-10-19T11:19:24.249Z,1.47
2017-10-19T11:22:07.202Z,2.07
2017-10-19T11:24:36.309Z,2.20
2017-10-19T11:27:05.512Z,3.17
2017-10-19T11:29:34.948Z,2.40
2017-10-19T11:32:04.235Z,1.90
2017-10-19T11:34:33.292Z,2.77
2017-10-19T11:37:02.396Z,1.43
2017-10-19T11:39:32.316Z,1.83
2017-10-19T11:42:01.407Z,1.70
2017-10-19T11:44:37.099Z,1.80
2017-10-19T11:47:06.192Z,1.87
2017-10-19T11:49:35.341Z,1.70
2017-10-19T11:52:04.482Z,2.27
2017-10-19T11:54:33.564Z,1.90
2017-10-19T11:57:14.970Z,1.83
2017-10-19T11:59:44.377Z,2.13
2017-10-19T12:02:13.469Z,1.97
2017-10-19T12:04:42.544Z,2.30
2017-10-19T12:07:12.380Z,2.27
2017-10-19T12:09:43.143Z,2.70
2017-10-19T12:12:12.332Z,3.20
2017-10-19T12:14:41.537Z,2.10
2017-10-19T12:17:11.807Z,1.53
2017-10-19T12:19:41.844Z,1.67
2017-10-19T12:22:11.148Z,1.50
2017-10-19T12:24:46.556Z,1.57
2017-10-19T12:27:15.908Z,2.10
2017-10-19T12:29:45.015Z,2.73
2017-10-19T12:32:14.094Z,3.17
2017-10-19T12:34:43.407Z,2.10
2017-10-19T12:37:12.775Z,1.80
2017-10-19T12:39:41.872Z,2.00
2017-10-19T12:42:11.101Z,1.30
2017-10-19T12:44:40.222Z,1.23
2017-10-19T12:47:09.321Z,1.70
2017-10-19T12:49:38.432Z,1.50
2017-10-19T12:52:07.530Z,1.50
2017-10-19T12:54:37.104Z,1.30
2017-10-19T12:57:07.036Z,1.63
2017-10-19T12:59:36.125Z,2.90
2017-10-19T13:02:11.596Z,2.57
2017-10-19T13:04:40.964Z,1.90
2017-10-19T13:07:10.092Z,1.50
2017-10-19T13:09:39.471Z,1.67
2017-10-19T13:12:08.776Z,1.80
2017-10-19T13:14:39.675Z,1.67
2017-10-19T13:17:08.938Z,1.50
2017-10-19T13:19:38.552Z,1.43
2017-10-19T13:22:07.989Z,1.20
2017-10-19T13:24:37.466Z,1.40
2017-10-19T13:27:08.249Z,1.47
2017-10-19T13:29:41.053Z,1.83
2017-10-19T13:32:10.640Z,1.60
2017-10-19T13:34:40.226Z,1.33
2017-10-19T13:37:09.624Z,1.70
2017-10-19T13:39:39.101Z,1.33
2017-10-19T13:42:08.593Z,1.63
2017-10-19T13:44:45.160Z,1.50
2017-10-19T13:47:14.640Z,1.73
2017-10-19T13:49:51.378Z,1.40
2017-10-19T13:52:22.176Z,1.10
2017-10-19T13:54:58.852Z,1.40
2017-10-19T13:57:34.164Z,1.50
2017-10-19T14:00:21.727Z,1.87
2017-10-19T14:02:51.270Z,1.50
2017-10-19T14:05:50.935Z,1.43
2017-10-19T14:08:23.569Z,2.10
2017-10-19T14:10:53.860Z,1.57
2017-10-19T14:13:48.763Z,1.53
2017-10-19T14:16:29.790Z,1.60
2017-10-19T14:18:59.763Z,1.30
2017-10-19T14:21:31.641Z,1.40
2017-10-19T14:24:01.266Z,1.40
2017-10-19T14:26:30.717Z,1.70
2017-10-19T14:29:01.707Z,1.60
2017-10-19T14:31:33.888Z,1.50
2017-10-19T14:34:03.130Z,1.67
2017-10-19T14:36:32.384Z,1.53
2017-10-19T14:39:08.588Z,1.60
2017-10-19T14:41:37.676Z,2.13
2017-10-19T14:44:06.915Z,1.70
2017-10-19T14:46:36.473Z,1.60
2017-10-19T14:49:05.989Z,1.83
2017-10-19T14:51:35.846Z,1.90
2017-10-19T14:54:04.941Z,1.40
2017-10-19T14:56:35.680Z,1.83
2017-10-19T14:59:04.880Z,1.40
2017-10-19T15:01:34.091Z,1.87
2017-10-19T15:04:03.608Z,1.77
2017-10-19T15:06:32.672Z,1.57
2017-10-19T15:09:02.253Z,1.50
2017-10-19T15:11:31.328Z,1.90
2017-10-19T15:14:00.689Z,2.30
2017-10-19T15:16:29.948Z,2.00
2017-10-19T15:18:59.506Z,1.70
2017-10-19T15:21:29.050Z,1.40
2017-10-19T15:24:04.240Z,1.90
2017-10-19T15:26:33.898Z,1.50
2017-10-19T15:29:06.557Z,1.60
2017-10-19T15:31:35.760Z,2.07
2017-10-19T15:34:12.609Z,2.40
2017-10-19T15:36:42.217Z,2.10
2017-10-19T15:39:11.720Z,2.00
2017-10-19T15:41:40.783Z,1.60
2017-10-19T15:44:10.059Z,1.67
2017-10-19T15:46:39.362Z,1.60
2017-10-19T15:49:18.258Z,1.70
2017-10-19T15:51:47.469Z,1.20
2017-10-19T15:54:16.761Z,1.10
2017-10-19T15:56:46.273Z,1.10
2017-10-19T15:59:15.382Z,1.10
2017-10-19T16:01:47.620Z,0.80
2017-10-19T16:04:18.216Z,0.90
2017-10-19T16:06:47.715Z,0.80
2017-10-19T16:09:18.404Z,0.70
2017-10-19T16:11:48.464Z,0.90
2017-10-19T16:14:17.742Z,0.83
2017-10-19T16:16:47.125Z,0.80
2017-10-19T16:21:58.917Z,0.90
2017-10-19T16:24:36.259Z,0.80
2017-10-19T16:32:27.246Z,1.40
2017-10-19T16:34:56.391Z,1.20
2017-10-19T16:37:42.727Z,2.03
2017-10-19T16:40:11.872Z,1.10
2017-10-19T16:42:41.247Z,1.30
2017-10-19T16:45:24.210Z,0.90
2017-10-19T16:47:58.146Z,1.20
2017-10-19T16:50:35.985Z,1.30
2017-10-19T16:53:08.492Z,2.10
2017-10-19T16:55:37.821Z,1.67
2017-10-19T16:58:15.691Z,1.80
2017-10-19T17:00:45.306Z,1.90
2017-10-19T17:03:22.029Z,2.93
2017-10-19T17:05:51.634Z,2.80
2017-10-19T17:08:34.100Z,2.97
2017-10-19T17:11:03.370Z,3.20
2017-10-19T17:13:36.231Z,4.57
2017-10-19T17:16:08.424Z,4.97
2017-10-19T17:18:51.741Z,3.50
2017-10-19T17:21:22.600Z,4.10
2017-10-19T17:23:56.023Z,2.90
2017-10-19T17:26:32.856Z,3.07
2017-10-19T17:29:02.862Z,2.40
2017-10-19T17:31:39.054Z,3.30
2017-10-19T17:34:09.389Z,2.33
2017-10-19T17:36:55.155Z,2.50
2017-10-19T17:39:38.099Z,2.70
2017-10-19T17:42:07.744Z,2.40
2017-10-19T17:44:37.242Z,2.60
2017-10-19T17:47:07.159Z,2.63
2017-10-19T17:49:38.792Z,1.90
2017-10-19T17:52:08.821Z,2.33
2017-10-19T17:54:54.245Z,2.70
2017-10-19T18:00:14.502Z,2.00
2017-10-19T18:02:44.004Z,2.30
2017-10-19T18:05:14.130Z,2.00
2017-10-19T18:07:44.038Z,2.20
2017-10-19T18:10:23.016Z,2.20
2017-10-19T18:12:53.022Z,2.60
2017-10-19T18:15:24.216Z,2.43
2017-10-19T18:17:55.807Z,3.17
2017-10-19T18:20:25.606Z,2.90
2017-10-19T18:23:01.934Z,3.17
2017-10-19T18:25:45.025Z,3.10
2017-10-19T18:28:14.467Z,3.30
2017-10-19T18:30:46.934Z,3.00
2017-10-19T18:33:16.740Z,3.67
2017-10-19T18:35:47.408Z,4.07
2017-10-19T18:38:17.007Z,3.93
2017-10-19T18:43:20.337Z,3.50
2017-10-19T18:45:53.126Z,3.17
2017-10-19T18:48:23.146Z,2.33
2017-10-19T18:50:52.925Z,2.20
2017-10-19T18:53:24.390Z,2.63
2017-10-19T18:55:54.676Z,2.17
2017-10-19T18:58:55.429Z,2.77
2017-10-19T19:01:25.729Z,2.40
2017-10-19T19:03:55.339Z,2.90
2017-10-19T19:06:25.337Z,3.27
2017-10-19T19:08:56.499Z,4.60
2017-10-19T19:11:26.033Z,5.03
2017-10-19T19:13:55.547Z,3.20
2017-10-19T19:16:26.002Z,3.57
2017-10-19T19:18:56.078Z,2.67
2017-10-19T19:23:59.366Z,3.20
2017-10-19T19:26:41.126Z,3.60
2017-10-19T19:29:10.773Z,2.40
2017-10-19T19:31:40.544Z,2.20
2017-10-19T19:34:09.952Z,1.90
2017-10-19T19:36:39.362Z,1.60
2017-10-19T19:39:17.992Z,2.03
2017-10-19T19:41:47.384Z,2.50
2017-10-19T19:44:16.933Z,1.77
2017-10-19T19:46:46.556Z,2.10
2017-10-19T19:49:16.773Z,2.00
2017-10-19T19:51:46.531Z,2.30
2017-10-19T19:56:53.255Z,2.73
2017-10-19T20:01:57.430Z,1.97
2017-10-19T20:04:34.405Z,2.00
2017-10-19T20:07:04.411Z,2.13
2017-10-19T20:09:35.550Z,2.00
2017-10-19T20:12:05.058Z,1.57
2017-10-19T20:14:34.885Z,2.50
2017-10-19T20:19:58.085Z,2.80
2017-10-19T20:22:34.764Z,1.90
2017-10-19T20:25:10.378Z,2.50
2017-10-19T20:27:46.977Z,2.20
2017-10-19T20:30:16.629Z,1.70
2017-10-19T20:32:46.191Z,1.77
2017-10-19T20:35:15.961Z,1.70
2017-10-19T20:37:49.083Z,2.30
2017-10-19T20:40:18.497Z,2.43
2017-10-19T20:43:01.581Z,2.33
2017-10-19T20:45:31.633Z,1.63
2017-10-19T20:48:01.259Z,1.80
2017-10-19T20:50:37.259Z,1.90
2017-10-19T20:53:06.905Z,1.97
2017-10-19T20:55:37.628Z,2.30
2017-10-19T20:58:07.607Z,2.47
2017-10-19T21:00:37.912Z,2.53
2017-10-19T21:03:09.107Z,2.40
2017-10-19T21:05:38.713Z,2.27
2017-10-19T21:08:08.352Z,2.30
2017-10-19T21:10:38.061Z,2.37
2017-10-19T21:13:07.708Z,1.83
2017-10-19T21:15:37.490Z,1.90
2017-10-19T21:18:06.869Z,2.43
2017-10-19T21:20:36.959Z,2.90
2017-10-19T21:23:19.010Z,2.07
2017-10-19T21:25:50.622Z,1.87
2017-10-19T21:28:36.680Z,1.60
2017-10-19T21:33:49.548Z,1.80
2017-10-19T21:36:23.139Z,1.70
2017-10-19T21:38:52.251Z,1.47
2017-10-19T21:41:21.396Z,1.60
2017-10-19T21:46:32.273Z,1.60
2017-10-19T21:49:02.983Z,1.67
2017-10-19T21:54:05.986Z,2.40
2017-10-19T21:59:20.459Z,2.00
2017-10-19T22:04:38.159Z,3.00
2017-10-19T22:07:07.381Z,2.27
2017-10-19T22:15:03.370Z,2.80
2017-10-19T22:17:33.172Z,2.50
2017-10-19T22:23:02.929Z,2.93
2017-10-19T22:25:33.184Z,2.47
2017-10-19T22:30:47.805Z,2.00
2017-10-19T22:36:20.352Z,1.70
2017-10-19T22:54:14.810Z,1.93
2017-10-19T22:56:58.518Z,2.40
2017-10-19T22:59:27.680Z,2.50
2017-10-19T23:01:56.910Z,2.90
2017-10-19T23:04:26.026Z,2.60
2017-10-19T23:06:55.463Z,2.70
2017-10-19T23:09:24.667Z,2.60
2017-10-19T23:11:54.062Z,2.70
2017-10-19T23:14:26.452Z,2.37
2017-10-19T23:17:00.824Z,2.07
2017-10-19T23:19:30.027Z,1.90
2017-10-19T23:21:59.542Z,2.20
2017-10-19T23:24:28.756Z,2.03
2017-10-19T23:27:04.565Z,1.83
2017-10-19T23:29:48.884Z,1.53
2017-10-19T23:32:18.061Z,1.47
2017-10-19T23:34:47.185Z,1.40
2017-10-19T23:37:16.368Z,1.40
2017-10-19T23:39:45.552Z,1.73
2017-10-19T23:42:27.919Z,1.50
2017-10-19T23:44:57.129Z,1.77
2017-10-19T23:47:26.332Z,1.40
2017-10-19T23:50:08.770Z,1.90
2017-10-19T23:52:44.414Z,1.30
2017-10-19T23:55:20.202Z,1.53
2017-10-19T23:57:49.634Z,1.67
